Time;durP1;ratioP1;P1;durP2;ratioP2;P2;SDS_P1;SDS_P2;PMS_P1;PMS_P2;Temp;Humidity;BMP_temperature;BMP_pressure;BME280_temperature;BME280_humidity;BME280_pressure;Samples;Min_cycle;Max_cycle;Signal;HPM_P1;HPM_P2
2023/05/31 00:04:44;;;;;;;5.22;2.88;;;;;;;;;;13109429;22;20412;-88
2023/05/31 00:09:46;;;;;;;5.03;2.75;;;;;;;;;;13109661;22;20389;-88
2023/05/31 00:14:48;;;;;;;3.78;2.40;;;;;;;;;;13107898;22;20379;-88
2023/05/31 00:19:52;;;;;;;3.88;2.42;;;;;;;;;;13107514;22;20421;-88
2023/05/31 00:24:55;;;;;;;4.00;2.50;;;;;;;;;;13108032;22;20409;-88
2023/05/31 00:29:57;;;;;;;4.23;2.10;;;;;;;;;;13108690;22;20360;-88
2023/05/31 00:35:01;;;;;;;3.80;2.58;;;;;;;;;;13107877;22;20413;-89
2023/05/31 00:40:04;;;;;;;2.90;2.30;;;;;;;;;;13108773;22;20367;-88
2023/05/31 00:45:07;;;;;;;4.07;2.40;;;;;;;;;;13108215;22;20367;-88
2023/05/31 00:50:11;;;;;;;3.70;2.20;;;;;;;;;;13107994;22;20417;-88
2023/05/31 00:55:14;;;;;;;4.63;2.10;;;;;;;;;;13107336;22;20379;-88
2023/05/31 01:00:17;;;;;;;2.83;2.00;;;;;;;;;;13129587;22;20835;-88
2023/05/31 01:05:21;;;;;;;3.63;2.30;;;;;;;;;;13107946;22;20676;-88
2023/05/31 01:10:23;;;;;;;3.03;2.10;;;;;;;;;;13108318;22;20408;-88
2023/05/31 01:15:28;;;;;;;3.30;2.07;;;;;;;;;;13107400;22;20378;-87
2023/05/31 01:20:33;;;;;;;3.05;2.35;;;;;;;;;;13107013;22;20908;-88
2023/05/31 01:26:06;;;;;;;2.97;2.20;;;;;;;;;;13106879;22;20409;-88
2023/05/31 01:31:15;;;;;;;3.92;2.40;;;;;;;;;;13067912;22;20359;-87
2023/05/31 01:36:17;;;;;;;4.10;2.13;;;;;;;;;;13112352;22;20375;-88
2023/05/31 01:41:21;;;;;;;3.50;2.00;;;;;;;;;;13111210;22;20906;-88
2023/05/31 01:46:26;;;;;;;3.27;2.07;;;;;;;;;;13110413;22;20880;-88
2023/05/31 01:51:30;;;;;;;2.70;1.80;;;;;;;;;;13111727;22;20432;-88
2023/05/31 01:56:33;;;;;;;3.23;2.13;;;;;;;;;;13110769;22;20379;-88
2023/05/31 02:01:37;;;;;;;4.20;2.37;;;;;;;;;;13110143;22;20360;-88
2023/05/31 02:06:39;;;;;;;3.17;2.20;;;;;;;;;;13110682;22;20424;-88
2023/05/31 02:11:41;;;;;;;3.63;2.70;;;;;;;;;;13109829;22;20367;-88
2023/05/31 02:16:45;;;;;;;3.27;2.30;;;;;;;;;;13109455;22;20921;-88
2023/05/31 02:21:48;;;;;;;4.73;2.57;;;;;;;;;;13110813;22;20800;-88
2023/05/31 02:26:50;;;;;;;4.85;2.67;;;;;;;;;;13109903;22;20665;-88
2023/05/31 02:31:54;;;;;;;3.53;2.50;;;;;;;;;;13103590;22;20359;-88
2023/05/31 02:36:56;;;;;;;3.70;2.40;;;;;;;;;;13105010;22;20757;-88
2023/05/31 02:41:59;;;;;;;3.50;2.40;;;;;;;;;;13104103;22;20396;-88
2023/05/31 02:47:02;;;;;;;3.87;2.60;;;;;;;;;;13106019;22;20452;-88
2023/05/31 02:52:05;;;;;;;4.63;2.58;;;;;;;;;;13109918;22;20429;-87
2023/05/31 02:57:07;;;;;;;3.40;2.65;;;;;;;;;;13109647;22;20947;-88
2023/05/31 03:02:11;;;;;;;3.67;2.60;;;;;;;;;;13109883;22;20401;-88
2023/05/31 03:07:13;;;;;;;4.27;2.73;;;;;;;;;;13109239;22;20359;-88
2023/05/31 03:12:16;;;;;;;3.67;2.95;;;;;;;;;;13109462;22;20356;-87
2023/05/31 03:17:20;;;;;;;4.60;3.00;;;;;;;;;;13109281;22;20749;-88
2023/05/31 03:22:23;;;;;;;4.47;3.00;;;;;;;;;;13109011;22;20896;-88
2023/05/31 03:27:25;;;;;;;4.33;3.00;;;;;;;;;;13108768;22;20420;-88
2023/05/31 03:32:29;;;;;;;3.80;3.00;;;;;;;;;;13109852;22;20355;-88
2023/05/31 03:37:31;;;;;;;5.03;3.35;;;;;;;;;;13108494;22;20383;-88
2023/05/31 03:42:33;;;;;;;4.30;3.00;;;;;;;;;;13109479;22;20351;-88
2023/05/31 03:47:37;;;;;;;4.28;3.05;;;;;;;;;;13109984;22;20425;-88
2023/05/31 03:52:39;;;;;;;4.77;2.87;;;;;;;;;;13104238;22;20359;-88
2023/05/31 03:57:41;;;;;;;5.50;3.10;;;;;;;;;;13107840;22;20742;-88
2023/05/31 04:02:45;;;;;;;4.93;3.00;;;;;;;;;;13108901;22;20385;-88
2023/05/31 04:07:47;;;;;;;5.40;3.15;;;;;;;;;;13108601;22;20730;-88
2023/05/31 04:12:49;;;;;;;4.03;3.10;;;;;;;;;;13107676;22;20355;-87
2023/05/31 04:17:53;;;;;;;4.38;3.10;;;;;;;;;;13107402;22;20376;-88
2023/05/31 04:22:55;;;;;;;5.40;3.40;;;;;;;;;;13108521;22;20359;-88
2023/05/31 04:27:58;;;;;;;3.88;2.90;;;;;;;;;;13108550;22;20416;-88
2023/05/31 04:33:04;;;;;;;5.13;3.53;;;;;;;;;;13107950;22;20755;-88
2023/05/31 04:38:07;;;;;;;5.23;3.27;;;;;;;;;;13105168;22;20379;-88
2023/05/31 04:43:09;;;;;;;4.47;3.20;;;;;;;;;;13104431;22;20367;-88
2023/05/31 04:48:15;;;;;;;5.78;3.20;;;;;;;;;;13106260;22;20417;-88
2023/05/31 04:53:17;;;;;;;6.70;3.80;;;;;;;;;;13105600;22;20347;-89
2023/05/31 04:58:20;;;;;;;6.53;4.00;;;;;;;;;;13105364;22;20405;-88
2023/05/31 05:03:24;;;;;;;9.05;5.40;;;;;;;;;;13105025;22;20359;-88
2023/05/31 05:08:26;;;;;;;8.77;5.07;;;;;;;;;;13104716;22;20390;-88
2023/05/31 05:13:29;;;;;;;7.73;4.63;;;;;;;;;;13056463;22;20375;-88
2023/05/31 05:18:33;;;;;;;5.97;4.15;;;;;;;;;;13106526;22;20416;-88
2023/05/31 05:23:37;;;;;;;5.63;3.67;;;;;;;;;;13096295;22;20371;-88
2023/05/31 05:28:39;;;;;;;4.18;3.30;;;;;;;;;;13099018;22;20389;-88
2023/05/31 05:33:43;;;;;;;4.23;3.47;;;;;;;;;;13103612;22;20389;-88
2023/05/31 05:38:45;;;;;;;5.75;3.45;;;;;;;;;;13102137;22;20749;-87
2023/05/31 05:43:47;;;;;;;4.75;3.38;;;;;;;;;;13102487;22;20359;-87
2023/05/31 05:48:51;;;;;;;4.13;3.10;;;;;;;;;;13095838;22;20422;-88
2023/05/31 05:53:53;;;;;;;3.85;3.10;;;;;;;;;;13104436;22;20405;-88
2023/05/31 05:58:56;;;;;;;5.78;3.03;;;;;;;;;;13103739;22;20383;-86
2023/05/31 06:03:59;;;;;;;5.03;3.23;;;;;;;;;;13106019;22;20393;-89
2023/05/31 06:09:02;;;;;;;4.60;3.20;;;;;;;;;;13105054;22;20428;-89
2023/05/31 06:14:04;;;;;;;3.42;2.85;;;;;;;;;;13104932;22;20364;-89
2023/05/31 06:19:08;;;;;;;5.95;3.10;;;;;;;;;;13108294;22;20425;-91
2023/05/31 06:24:10;;;;;;;4.25;2.97;;;;;;;;;;13111740;22;20371;-91
2023/05/31 06:29:12;;;;;;;4.80;2.77;;;;;;;;;;13115649;22;20456;-93
2023/05/31 06:34:16;;;;;;;6.15;3.03;;;;;;;;;;13111993;22;20363;-92
2023/05/31 06:39:18;;;;;;;5.15;2.90;;;;;;;;;;13112730;22;20431;-92
2023/05/31 06:44:20;;;;;;;4.70;3.10;;;;;;;;;;13111902;22;20360;-93
2023/05/31 06:49:24;;;;;;;4.70;2.90;;;;;;;;;;13108862;22;20360;-92
2023/05/31 06:54:27;;;;;;;3.70;2.67;;;;;;;;;;13108897;22;20973;-92
2023/05/31 06:59:30;;;;;;;6.20;3.20;;;;;;;;;;13111238;22;20432;-92
2023/05/31 07:04:33;;;;;;;5.90;2.90;;;;;;;;;;13107879;22;20359;-92
2023/05/31 07:09:36;;;;;;;4.43;3.20;;;;;;;;;;13108624;22;20432;-92
2023/05/31 07:14:40;;;;;;;5.07;3.00;;;;;;;;;;13112567;22;20424;-93
2023/05/31 07:19:48;;;;;;;4.17;2.87;;;;;;;;;;13110875;22;20375;-93
2023/05/31 07:24:50;;;;;;;4.72;2.88;;;;;;;;;;13112280;22;20429;-93
2023/05/31 07:29:52;;;;;;;4.33;3.07;;;;;;;;;;13111609;22;20359;-92
2023/05/31 07:34:56;;;;;;;6.18;3.10;;;;;;;;;;13111089;22;20371;-92
2023/05/31 07:39:58;;;;;;;4.17;3.00;;;;;;;;;;13110658;22;20460;-92
2023/05/31 07:45:01;;;;;;;4.55;2.95;;;;;;;;;;13108769;22;20363;-92
2023/05/31 07:50:06;;;;;;;4.93;3.00;;;;;;;;;;13109281;22;20428;-92
2023/05/31 07:55:08;;;;;;;4.13;2.90;;;;;;;;;;13109138;22;20820;-91
2023/05/31 08:00:13;;;;;;;5.10;3.33;;;;;;;;;;13110420;22;20436;-93
2023/05/31 08:05:16;;;;;;;4.90;3.30;;;;;;;;;;13110582;22;20428;-91
2023/05/31 08:10:19;;;;;;;5.93;3.50;;;;;;;;;;13110513;22;20371;-93
2023/05/31 08:15:22;;;;;;;4.28;3.10;;;;;;;;;;13111479;22;20363;-92
2023/05/31 08:20:26;;;;;;;3.83;3.00;;;;;;;;;;13111240;22;20432;-93
2023/05/31 08:25:28;;;;;;;4.38;3.33;;;;;;;;;;13110216;22;20375;-89
2023/05/31 08:30:30;;;;;;;5.83;3.67;;;;;;;;;;13111957;22;20367;-94
2023/05/31 08:35:34;;;;;;;5.27;3.43;;;;;;;;;;13111993;22;20448;-90
2023/05/31 08:40:36;;;;;;;5.15;3.22;;;;;;;;;;13110639;22;20375;-93
2023/05/31 08:45:39;;;;;;;5.27;3.07;;;;;;;;;;13112635;22;20375;-94
2023/05/31 08:50:43;;;;;;;5.28;3.10;;;;;;;;;;13110923;22;20432;-83
2023/05/31 08:55:48;;;;;;;3.85;3.13;;;;;;;;;;13110544;22;20363;-92
2023/05/31 09:00:50;;;;;;;5.50;3.50;;;;;;;;;;13111348;22;20359;-93
2023/05/31 09:05:55;;;;;;;4.20;3.33;;;;;;;;;;13119824;22;20459;-93
2023/05/31 09:10:57;;;;;;;4.40;3.53;;;;;;;;;;13110011;22;20425;-93
2023/05/31 09:16:01;;;;;;;5.53;3.47;;;;;;;;;;13111131;22;20372;-91
2023/05/31 09:21:09;;;;;;;5.45;3.85;;;;;;;;;;13111069;22;20360;-93
2023/05/31 09:26:12;;;;;;;6.33;3.70;;;;;;;;;;13110089;22;20393;-95
2023/05/31 09:31:17;;;;;;;5.55;3.78;;;;;;;;;;13110466;22;20464;-94
2023/05/31 09:36:26;;;;;;;5.05;3.33;;;;;;;;;;13108828;22;20409;-95
2023/05/31 09:41:29;;;;;;;5.35;3.60;;;;;;;;;;13110763;22;20360;-88
2023/05/31 09:46:31;;;;;;;5.90;3.60;;;;;;;;;;13110825;22;20386;-95
2023/05/31 09:51:36;;;;;;;5.43;3.73;;;;;;;;;;13113687;22;20359;-92
2023/05/31 09:56:40;;;;;;;4.97;3.55;;;;;;;;;;13113840;22;20451;-94
2023/05/31 10:01:44;;;;;;;6.63;4.10;;;;;;;;;;13113206;22;20884;-95
2023/05/31 10:06:49;;;;;;;5.50;3.65;;;;;;;;;;13113241;22;20394;-94
2023/05/31 10:11:54;;;;;;;5.65;3.40;;;;;;;;;;13114032;22;20847;-95
2023/05/31 10:16:57;;;;;;;5.05;3.22;;;;;;;;;;13135598;22;20383;-94
2023/05/31 10:22:02;;;;;;;5.03;3.17;;;;;;;;;;13113401;22;20397;-91
2023/05/31 10:27:12;;;;;;;6.40;3.30;;;;;;;;;;13113593;22;20355;-94
2023/05/31 10:32:20;;;;;;;5.07;3.17;;;;;;;;;;13113722;22;20360;-94
2023/05/31 10:37:24;;;;;;;4.13;3.20;;;;;;;;;;13115684;22;21151;-94
2023/05/31 10:42:34;;;;;;;4.70;3.07;;;;;;;;;;13113669;22;20363;-94
2023/05/31 10:47:43;;;;;;;5.15;3.58;;;;;;;;;;13114218;22;20460;-94
2023/05/31 10:52:49;;;;;;;5.00;3.30;;;;;;;;;;13120748;22;20405;-94
2023/05/31 10:57:53;;;;;;;5.20;3.30;;;;;;;;;;13117200;22;20451;-95
2023/05/31 11:02:58;;;;;;;6.47;3.43;;;;;;;;;;13111669;22;20393;-95
2023/05/31 11:08:13;;;;;;;5.13;3.30;;;;;;;;;;13112851;22;20363;-90
2023/05/31 11:13:16;;;;;;;5.50;3.00;;;;;;;;;;13106529;22;20432;-88
2023/05/31 11:18:26;;;;;;;5.63;3.10;;;;;;;;;;13097488;22;20375;-90
2023/05/31 11:23:34;;;;;;;4.55;3.42;;;;;;;;;;13096761;22;20412;-86
2023/05/31 11:28:56;;;;;;;5.75;3.40;;;;;;;;;;13099048;22;20375;-91
2023/05/31 11:34:18;;;;;;;6.13;3.33;;;;;;;;;;13100337;22;20371;-89
2023/05/31 11:39:22;;;;;;;4.25;3.47;;;;;;;;;;13099118;22;20391;-92
2023/05/31 11:44:30;;;;;;;4.25;3.70;;;;;;;;;;13098434;22;20360;-91
2023/05/31 11:49:33;;;;;;;4.07;3.15;;;;;;;;;;13100338;22;20359;-90
2023/05/31 11:54:37;;;;;;;3.92;3.40;;;;;;;;;;13099179;22;20367;-90
2023/05/31 11:59:40;;;;;;;5.00;3.47;;;;;;;;;;13098061;22;20858;-91
2023/05/31 12:04:43;;;;;;;6.50;3.30;;;;;;;;;;13096674;22;20432;-87
2023/05/31 12:09:48;;;;;;;5.20;3.40;;;;;;;;;;13094641;22;20379;-88
2023/05/31 12:14:51;;;;;;;6.38;3.70;;;;;;;;;;13101265;22;20432;-89
2023/05/31 12:19:54;;;;;;;6.30;3.67;;;;;;;;;;13101343;22;20382;-89
2023/05/31 12:24:58;;;;;;;4.90;3.88;;;;;;;;;;13101285;22;21002;-89
2023/05/31 12:30:02;;;;;;;4.30;3.60;;;;;;;;;;13102635;22;20363;-88
2023/05/31 12:35:07;;;;;;;4.45;3.30;;;;;;;;;;13102417;22;20364;-89
2023/05/31 12:40:12;;;;;;;5.72;3.47;;;;;;;;;;13102060;22;20871;-89
2023/05/31 12:45:18;;;;;;;6.07;4.00;;;;;;;;;;13103548;22;20831;-89
2023/05/31 12:50:21;;;;;;;5.45;4.10;;;;;;;;;;13102714;22;20424;-90
2023/05/31 12:55:24;;;;;;;4.80;3.55;;;;;;;;;;13103236;22;20412;-89
2023/05/31 13:00:27;;;;;;;4.57;3.50;;;;;;;;;;13102507;22;20380;-89
2023/05/31 13:05:31;;;;;;;5.32;3.55;;;;;;;;;;13102673;22;20364;-87
2023/05/31 13:10:36;;;;;;;4.85;3.38;;;;;;;;;;13103773;22;20828;-89
2023/05/31 13:15:38;;;;;;;7.07;3.60;;;;;;;;;;13102207;22;20359;-89
2023/05/31 13:20:40;;;;;;;6.43;3.63;;;;;;;;;;13100764;22;20401;-89
2023/05/31 13:25:44;;;;;;;4.30;3.50;;;;;;;;;;13105783;22;20363;-88
2023/05/31 13:30:46;;;;;;;4.60;3.67;;;;;;;;;;13106600;22;20363;-88
2023/05/31 13:35:49;;;;;;;5.60;3.77;;;;;;;;;;13106355;22;20359;-88
2023/05/31 13:40:53;;;;;;;5.30;3.70;;;;;;;;;;13106382;22;20383;-86
2023/05/31 13:45:55;;;;;;;5.78;4.07;;;;;;;;;;13107898;22;20363;-86
2023/05/31 13:50:58;;;;;;;7.78;3.90;;;;;;;;;;13108034;22;20436;-86
2023/05/31 13:56:01;;;;;;;6.15;3.65;;;;;;;;;;13108945;22;20463;-85
2023/05/31 14:01:05;;;;;;;6.13;4.00;;;;;;;;;;13107540;22;20378;-85
2023/05/31 14:06:08;;;;;;;6.60;3.33;;;;;;;;;;13107645;22;20408;-85
2023/05/31 14:11:13;;;;;;;5.30;3.10;;;;;;;;;;13107311;22;20424;-86
2023/05/31 14:16:15;;;;;;;3.67;3.00;;;;;;;;;;13107768;22;20898;-85
2023/05/31 14:21:17;;;;;;;3.53;2.67;;;;;;;;;;13108081;22;20702;-85
2023/05/31 14:26:21;;;;;;;3.53;3.10;;;;;;;;;;13107481;22;20420;-86
2023/05/31 14:31:23;;;;;;;4.77;3.30;;;;;;;;;;13104680;22;20420;-85
2023/05/31 14:36:25;;;;;;;4.40;2.70;;;;;;;;;;13107002;22;20455;-86
2023/05/31 14:41:29;;;;;;;5.30;2.97;;;;;;;;;;13107396;22;20424;-85
2023/05/31 14:46:31;;;;;;;4.63;2.90;;;;;;;;;;13106966;22;20355;-86
2023/05/31 14:51:34;;;;;;;3.90;3.05;;;;;;;;;;13102804;22;20417;-84
2023/05/31 14:56:38;;;;;;;4.38;3.00;;;;;;;;;;13102557;22;20367;-80
2023/05/31 15:01:42;;;;;;;4.18;2.63;;;;;;;;;;13093208;22;20922;-80
2023/05/31 15:06:44;;;;;;;2.87;2.50;;;;;;;;;;13105913;22;20900;-81
2023/05/31 15:11:48;;;;;;;3.47;2.70;;;;;;;;;;13104693;22;20359;-85
2023/05/31 15:16:50;;;;;;;8.65;3.58;;;;;;;;;;13104027;22;20421;-86
2023/05/31 15:21:53;;;;;;;7.78;3.60;;;;;;;;;;13104238;22;20379;-84
2023/05/31 15:26:57;;;;;;;5.68;3.78;;;;;;;;;;13103641;22;20419;-85
2023/05/31 15:32:03;;;;;;;4.35;3.00;;;;;;;;;;13098369;22;20363;-85
2023/05/31 15:37:06;;;;;;;6.78;3.90;;;;;;;;;;13103910;22;20371;-86
2023/05/31 15:42:09;;;;;;;6.55;3.50;;;;;;;;;;13103761;22;20786;-86
2023/05/31 15:47:12;;;;;;;4.28;3.60;;;;;;;;;;13101413;22;20359;-85
2023/05/31 15:52:14;;;;;;;4.72;3.22;;;;;;;;;;13103368;22;20360;-87
2023/05/31 15:57:18;;;;;;;3.95;3.05;;;;;;;;;;13103379;22;20355;-86
2023/05/31 16:02:21;;;;;;;4.82;3.40;;;;;;;;;;13102727;22;20952;-85
2023/05/31 16:07:23;;;;;;;4.65;3.38;;;;;;;;;;13099615;22;20385;-87
2023/05/31 16:12:27;;;;;;;5.53;3.30;;;;;;;;;;13103157;22;20363;-87
2023/05/31 16:17:29;;;;;;;5.10;3.80;;;;;;;;;;13100397;22;20436;-87
2023/05/31 16:22:31;;;;;;;4.47;3.08;;;;;;;;;;13102092;22;20375;-87
2023/05/31 16:27:36;;;;;;;5.40;3.50;;;;;;;;;;13100513;22;20355;-86
2023/05/31 16:32:38;;;;;;;5.78;3.60;;;;;;;;;;13104696;22;20359;-87
2023/05/31 16:37:41;;;;;;;6.20;3.20;;;;;;;;;;13095091;22;20444;-88
2023/05/31 16:42:44;;;;;;;5.47;3.10;;;;;;;;;;13094024;22;20421;-88
2023/05/31 16:47:46;;;;;;;4.17;2.80;;;;;;;;;;13095450;22;20431;-87
2023/05/31 16:52:51;;;;;;;4.23;3.17;;;;;;;;;;13096907;22;20371;-89
2023/05/31 16:57:55;;;;;;;3.13;2.63;;;;;;;;;;13095368;22;20379;-88
2023/05/31 17:02:57;;;;;;;3.45;2.55;;;;;;;;;;13093008;22;20375;-88
2023/05/31 17:07:59;;;;;;;3.03;2.60;;;;;;;;;;13095510;22;20834;-88
2023/05/31 17:13:03;;;;;;;5.32;2.65;;;;;;;;;;13093443;22;20892;-88
2023/05/31 17:18:06;;;;;;;3.90;2.70;;;;;;;;;;13095472;22;21047;-88
2023/05/31 17:23:08;;;;;;;4.63;2.73;;;;;;;;;;13097019;22;21033;-87
2023/05/31 17:28:12;;;;;;;3.80;2.60;;;;;;;;;;13095077;22;20433;-88
2023/05/31 17:33:16;;;;;;;4.57;2.90;;;;;;;;;;13096131;22;20363;-88
2023/05/31 17:38:19;;;;;;;3.75;2.83;;;;;;;;;;13087337;22;20455;-88
2023/05/31 17:43:22;;;;;;;3.30;3.00;;;;;;;;;;13090328;22;20375;-87
2023/05/31 17:48:26;;;;;;;5.00;3.10;;;;;;;;;;13089858;22;20755;-87
2023/05/31 17:53:28;;;;;;;4.65;3.25;;;;;;;;;;13089686;22;20371;-87
2023/05/31 17:58:32;;;;;;;5.15;3.47;;;;;;;;;;13092416;22;20372;-78
2023/05/31 18:03:34;;;;;;;4.35;3.15;;;;;;;;;;13096390;22;20379;-86
2023/05/31 18:08:36;;;;;;;5.40;3.30;;;;;;;;;;13096772;22;20441;-88
2023/05/31 18:13:40;;;;;;;4.28;3.28;;;;;;;;;;13098053;22;20393;-88
2023/05/31 18:18:42;;;;;;;6.07;3.60;;;;;;;;;;13097674;22;20890;-87
2023/05/31 18:23:45;;;;;;;5.00;3.47;;;;;;;;;;13098476;22;20379;-87
2023/05/31 18:28:48;;;;;;;6.22;3.70;;;;;;;;;;13090221;22;20375;-86
2023/05/31 18:33:51;;;;;;;9.30;3.90;;;;;;;;;;13094627;22;20371;-89
2023/05/31 18:38:53;;;;;;;6.53;3.50;;;;;;;;;;13093172;22;20455;-86
2023/05/31 18:43:57;;;;;;;5.63;3.90;;;;;;;;;;13091342;22;20405;-86
2023/05/31 18:49:00;;;;;;;6.85;3.72;;;;;;;;;;13091621;22;21143;-86
2023/05/31 18:54:03;;;;;;;7.28;3.88;;;;;;;;;;13089705;22;20444;-86
2023/05/31 18:59:07;;;;;;;4.53;3.60;;;;;;;;;;13091723;22;20444;-86
2023/05/31 19:04:09;;;;;;;9.25;4.32;;;;;;;;;;13091798;22;20424;-86
2023/05/31 19:09:12;;;;;;;6.00;3.60;;;;;;;;;;13090383;22;21105;-86
2023/05/31 19:14:16;;;;;;;8.67;4.43;;;;;;;;;;13090781;22;20412;-86
2023/05/31 19:19:18;;;;;;;5.65;4.05;;;;;;;;;;13089999;22;20372;-86
2023/05/31 19:24:21;;;;;;;6.32;4.00;;;;;;;;;;13091572;22;20367;-86
2023/05/31 19:29:24;;;;;;;6.22;4.18;;;;;;;;;;13092461;22;20367;-87
2023/05/31 19:34:27;;;;;;;7.82;4.60;;;;;;;;;;13093288;22;20375;-87
2023/05/31 19:39:29;;;;;;;6.38;4.32;;;;;;;;;;13090718;22;20379;-86
2023/05/31 19:44:33;;;;;;;7.93;4.80;;;;;;;;;;13104617;22;20375;-87
2023/05/31 19:49:35;;;;;;;11.20;7.10;;;;;;;;;;13092201;22;20436;-86
2023/05/31 19:54:37;;;;;;;11.88;6.25;;;;;;;;;;13092648;22;20371;-86
2023/05/31 19:59:41;;;;;;;9.07;5.55;;;;;;;;;;13093095;22;20519;-87
2023/05/31 20:04:43;;;;;;;9.45;5.32;;;;;;;;;;13093631;22;20921;-87
2023/05/31 20:09:46;;;;;;;8.30;4.80;;;;;;;;;;13090340;22;20476;-87
2023/05/31 20:14:50;;;;;;;6.70;4.73;;;;;;;;;;13094248;22;20436;-88
2023/05/31 20:19:52;;;;;;;6.13;4.70;;;;;;;;;;13092266;22;20448;-86
2023/05/31 20:24:54;;;;;;;9.47;5.30;;;;;;;;;;13092188;22;20401;-87
2023/05/31 20:29:58;;;;;;;10.02;5.57;;;;;;;;;;13093109;22;20375;-88
2023/05/31 20:35:00;;;;;;;7.70;5.07;;;;;;;;;;13092936;22;20436;-87
2023/05/31 20:40:03;;;;;;;9.02;5.32;;;;;;;;;;13094664;22;20440;-88
2023/05/31 20:45:08;;;;;;;7.78;5.35;;;;;;;;;;13096113;22;20371;-87
2023/05/31 20:50:12;;;;;;;8.00;5.60;;;;;;;;;;13094588;22;20912;-88
2023/05/31 20:55:15;;;;;;;10.48;6.43;;;;;;;;;;13095586;22;20973;-87
2023/05/31 21:00:21;;;;;;;8.15;5.82;;;;;;;;;;13096605;22;20371;-88
2023/05/31 21:05:24;;;;;;;9.25;6.70;;;;;;;;;;13096467;22;20432;-87
2023/05/31 21:10:27;;;;;;;10.20;6.30;;;;;;;;;;13095799;22;20363;-88
2023/05/31 21:15:30;;;;;;;8.60;5.78;;;;;;;;;;13094120;22;20367;-88
2023/05/31 21:20:33;;;;;;;8.77;5.80;;;;;;;;;;13093234;22;20886;-88
2023/05/31 21:25:35;;;;;;;7.60;5.78;;;;;;;;;;13098072;22;20375;-88
2023/05/31 21:30:39;;;;;;;7.20;5.28;;;;;;;;;;13098820;22;20424;-88
2023/05/31 21:35:41;;;;;;;6.72;5.18;;;;;;;;;;13098738;22;20413;-89
2023/05/31 21:40:43;;;;;;;5.93;5.28;;;;;;;;;;13104523;22;20375;-89
2023/05/31 21:45:47;;;;;;;8.40;5.63;;;;;;;;;;13106482;22;20363;-89
2023/05/31 21:50:49;;;;;;;7.65;5.20;;;;;;;;;;13111194;22;20363;-88
2023/05/31 21:55:51;;;;;;;7.57;5.30;;;;;;;;;;13110064;22;20391;-88
2023/05/31 22:00:55;;;;;;;9.50;5.73;;;;;;;;;;13109431;22;20432;-89
2023/05/31 22:05:57;;;;;;;6.40;5.35;;;;;;;;;;13109932;22;20355;-88
2023/05/31 22:11:00;;;;;;;8.30;5.70;;;;;;;;;;13108721;22;20367;-89
2023/05/31 22:16:03;;;;;;;8.23;6.13;;;;;;;;;;13109503;22;20356;-87
2023/05/31 22:21:06;;;;;;;8.87;6.20;;;;;;;;;;13110690;22;20440;-88
2023/05/31 22:26:08;;;;;;;8.63;6.10;;;;;;;;;;13111404;22;20417;-89
2023/05/31 22:31:12;;;;;;;9.43;6.30;;;;;;;;;;13110180;22;20885;-88
2023/05/31 22:36:15;;;;;;;11.30;6.40;;;;;;;;;;13110064;22;20367;-88
2023/05/31 22:41:17;;;;;;;7.50;6.50;;;;;;;;;;13107769;22;20843;-88
2023/05/31 22:46:21;;;;;;;10.00;6.20;;;;;;;;;;13109411;22;20843;-89
2023/05/31 22:51:24;;;;;;;9.50;6.57;;;;;;;;;;13109403;22;20359;-89
2023/05/31 22:56:26;;;;;;;7.75;6.38;;;;;;;;;;13106467;22;20393;-89
2023/05/31 23:01:29;;;;;;;8.63;6.28;;;;;;;;;;13108137;22;20441;-89
2023/05/31 23:06:32;;;;;;;9.17;6.77;;;;;;;;;;13108266;22;20360;-88
2023/05/31 23:11:34;;;;;;;8.30;6.75;;;;;;;;;;13110321;22;20432;-89
2023/05/31 23:16:41;;;;;;;10.17;7.10;;;;;;;;;;13109005;22;20363;-88
2023/05/31 23:21:44;;;;;;;9.68;7.75;;;;;;;;;;13107021;22;20402;-89
2023/05/31 23:26:47;;;;;;;9.60;7.07;;;;;;;;;;13108250;22;20424;-89
2023/05/31 23:31:51;;;;;;;12.60;8.47;;;;;;;;;;13108722;22;20360;-89
2023/05/31 23:36:53;;;;;;;11.35;8.35;;;;;;;;;;13107468;22;20767;-89
2023/05/31 23:41:55;;;;;;;11.23;8.30;;;;;;;;;;13109204;22;20429;-89
2023/05/31 23:46:59;;;;;;;11.03;8.20;;;;;;;;;;13109458;22;20355;-89
2023/05/31 23:52:01;;;;;;;12.27;8.88;;;;;;;;;;13109969;22;20511;-88
2023/05/31 23:57:04;;;;;;;11.03;8.83;;;;;;;;;;13108699;22;20827;-89
